createdAt,value
2018-02-15T00:00:18.196Z,-3.10
2018-02-15T00:02:46.918Z,-3.00
2018-02-15T00:05:16.385Z,-3.00
2018-02-15T00:07:45.102Z,-3.00
2018-02-15T00:10:13.843Z,-3.10
2018-02-15T00:12:42.709Z,-3.20
2018-02-15T00:15:11.417Z,-3.20
2018-02-15T00:17:40.154Z,-3.00
2018-02-15T00:20:09.630Z,-3.10
2018-02-15T00:22:38.354Z,-3.10
2018-02-15T00:25:07.058Z,-3.20
2018-02-15T00:27:36.555Z,-3.20
2018-02-15T00:30:06.034Z,-3.10
2018-02-15T00:32:34.794Z,-3.20
2018-02-15T00:35:03.515Z,-3.00
2018-02-15T00:37:32.232Z,-3.10
2018-02-15T00:40:01.714Z,-3.10
2018-02-15T00:42:30.429Z,-3.10
2018-02-15T00:44:59.918Z,-3.10
2018-02-15T00:47:29.398Z,-2.90
2018-02-15T00:49:58.106Z,-3.00
2018-02-15T00:52:26.854Z,-3.00
2018-02-15T00:54:55.563Z,-3.00
2018-02-15T00:57:24.297Z,-3.10
2018-02-15T00:59:53.031Z,-3.00
2018-02-15T01:02:21.754Z,-3.00
2018-02-15T01:04:50.456Z,-3.00
2018-02-15T01:07:19.194Z,-3.00
2018-02-15T01:09:47.894Z,-2.90
2018-02-15T01:12:16.616Z,-2.90
2018-02-15T01:14:45.833Z,-3.00
2018-02-15T01:17:14.719Z,-3.00
2018-02-15T01:19:44.189Z,-2.90
2018-02-15T01:22:13.058Z,-2.70
2018-02-15T01:24:41.806Z,-2.70
2018-02-15T01:27:10.522Z,-2.70
2018-02-15T01:29:39.258Z,-2.70
2018-02-15T01:32:08.386Z,-2.70
2018-02-15T01:34:37.129Z,-2.70
2018-02-15T01:37:05.861Z,-2.70
2018-02-15T01:39:34.726Z,-2.70
2018-02-15T01:42:04.214Z,-3.00
2018-02-15T01:44:32.924Z,-2.80
2018-02-15T01:47:02.401Z,-2.70
2018-02-15T01:49:31.264Z,-2.70
2018-02-15T01:51:59.965Z,-2.70
2018-02-15T01:54:28.766Z,-2.70
2018-02-15T01:56:57.524Z,-2.50
2018-02-15T01:59:26.241Z,-2.50
2018-02-15T02:01:54.981Z,-2.40
2018-02-15T02:04:23.690Z,-2.60
2018-02-15T02:06:52.478Z,-2.70
2018-02-15T02:09:21.214Z,-2.60
2018-02-15T02:11:50.034Z,-2.60
2018-02-15T02:14:19.503Z,-2.60
2018-02-15T02:16:48.230Z,-2.60
2018-02-15T02:19:16.934Z,-2.50
2018-02-15T02:21:45.657Z,-2.30
2018-02-15T02:24:15.182Z,-2.20
2018-02-15T02:26:43.902Z,-2.30
2018-02-15T02:29:13.385Z,-2.30
2018-02-15T02:31:42.862Z,-2.30
2018-02-15T02:34:11.579Z,-2.20
2018-02-15T02:36:40.305Z,-2.20
2018-02-15T02:39:09.026Z,-2.20
2018-02-15T02:41:37.755Z,-2.30
2018-02-15T02:44:07.248Z,-2.30
2018-02-15T02:46:35.978Z,-2.10
2018-02-15T02:49:04.722Z,-2.30
2018-02-15T02:51:33.465Z,-2.20
2018-02-15T02:54:02.182Z,-2.20
2018-02-15T02:56:30.886Z,-2.30
2018-02-15T02:58:59.602Z,-2.30
2018-02-15T03:01:29.078Z,-2.30
2018-02-15T03:03:57.811Z,-2.30
2018-02-15T03:06:26.514Z,-2.50
2018-02-15T03:08:55.234Z,-2.40
2018-02-15T03:11:24.059Z,-2.20
2018-02-15T03:13:53.547Z,-2.10
2018-02-15T03:16:22.273Z,-2.10
2018-02-15T03:18:50.986Z,-2.00
2018-02-15T03:21:20.043Z,-2.00
2018-02-15T03:23:49.517Z,-2.00
2018-02-15T03:26:18.246Z,-2.10
2018-02-15T03:28:46.953Z,-2.00
2018-02-15T03:31:15.675Z,-2.10
2018-02-15T03:33:44.403Z,-2.10
2018-02-15T03:36:13.110Z,-2.10
2018-02-15T03:38:41.878Z,-2.00
2018-02-15T03:41:11.338Z,-2.00
2018-02-15T03:43:40.049Z,-2.00
2018-02-15T03:46:09.526Z,-2.00
2018-02-15T03:48:38.241Z,-2.00
2018-02-15T03:51:06.942Z,-1.90
2018-02-15T03:53:36.446Z,-2.00
2018-02-15T03:56:05.932Z,-1.90
2018-02-15T03:58:34.654Z,-1.90
2018-02-15T04:01:04.320Z,-1.80
2018-02-15T04:03:33.046Z,-1.90
2018-02-15T04:06:01.754Z,-1.80
2018-02-15T04:08:30.458Z,-1.80
2018-02-15T04:10:59.175Z,-1.80
2018-02-15T04:13:28.070Z,-1.80
2018-02-15T04:15:56.762Z,-1.70
2018-02-15T04:18:27.067Z,-1.60
2018-02-15T04:20:55.816Z,-1.60
2018-02-15T04:23:24.534Z,-1.50
2018-02-15T04:25:53.270Z,-1.50
2018-02-15T04:28:22.758Z,-1.50
2018-02-15T04:30:51.595Z,-1.50
2018-02-15T04:33:20.322Z,-1.50
2018-02-15T04:35:49.025Z,-1.50
2018-02-15T04:38:17.950Z,-1.60
2018-02-15T04:40:47.462Z,-1.50
2018-02-15T04:43:16.166Z,-1.50
2018-02-15T04:45:44.879Z,-1.50
2018-02-15T04:48:13.654Z,-1.50
2018-02-15T04:50:42.461Z,-1.50
2018-02-15T04:53:11.162Z,-1.40
2018-02-15T04:55:39.977Z,-1.50
2018-02-15T04:58:09.430Z,-1.40
2018-02-15T05:00:38.141Z,-1.40
2018-02-15T05:03:06.841Z,-1.20
2018-02-15T05:05:35.554Z,-1.30
2018-02-15T05:08:05.043Z,-1.30
2018-02-15T05:10:34.031Z,-1.30
2018-02-15T05:13:02.740Z,-1.40
2018-02-15T05:15:32.227Z,-1.50
2018-02-15T05:18:00.933Z,-1.50
2018-02-15T05:20:30.402Z,-1.40
2018-02-15T05:22:59.126Z,-1.40
2018-02-15T05:25:28.731Z,-1.60
2018-02-15T05:27:58.223Z,-1.50
2018-02-15T05:30:26.920Z,-1.50
2018-02-15T05:32:55.633Z,-1.50
2018-02-15T05:35:24.347Z,-1.60
2018-02-15T05:37:53.070Z,-1.50
2018-02-15T05:40:21.785Z,-1.50
2018-02-15T05:42:51.264Z,-1.50
2018-02-15T05:45:19.988Z,-1.60
2018-02-15T05:47:49.477Z,-1.40
2018-02-15T05:50:18.182Z,-1.40
2018-02-15T05:52:47.670Z,-1.20
2018-02-15T05:55:16.394Z,-1.30
2018-02-15T05:57:45.085Z,-1.00
2018-02-15T06:00:13.801Z,-0.90
2018-02-15T06:02:42.526Z,-0.90
2018-02-15T06:05:11.982Z,-1.00
2018-02-15T06:07:40.770Z,-1.10
2018-02-15T06:10:09.664Z,-1.10
2018-02-15T06:12:38.410Z,-1.10
2018-02-15T06:15:07.912Z,-1.00
2018-02-15T06:17:37.435Z,-1.20
2018-02-15T06:20:06.187Z,-1.20
2018-02-15T06:22:35.023Z,-1.00
2018-02-15T06:25:04.158Z,-1.10
2018-02-15T06:27:32.894Z,-1.10
2018-02-15T06:30:01.651Z,-1.10
2018-02-15T06:32:31.173Z,-1.20
2018-02-15T06:35:00.767Z,-1.00
2018-02-15T06:37:29.500Z,-1.10
2018-02-15T06:39:58.224Z,-1.20
2018-02-15T06:42:27.015Z,-1.20
2018-02-15T06:44:55.774Z,-1.30
2018-02-15T06:47:24.525Z,-1.30
2018-02-15T06:49:54.036Z,-1.20
2018-02-15T06:52:23.543Z,-1.10
2018-02-15T06:54:53.045Z,-1.00
2018-02-15T06:57:22.380Z,-0.90
2018-02-15T06:59:51.141Z,-1.00
2018-02-15T07:02:20.651Z,-1.00
2018-02-15T07:04:50.151Z,-1.00
2018-02-15T07:07:19.648Z,-1.00
2018-02-15T07:09:49.307Z,-0.90
2018-02-15T07:12:18.507Z,-0.90
2018-02-15T07:14:47.248Z,-0.90
2018-02-15T07:17:16.911Z,-0.90
2018-02-15T07:19:45.653Z,-0.80
2018-02-15T07:22:15.206Z,-0.80
2018-02-15T07:24:44.035Z,-0.80
2018-02-15T07:27:13.539Z,-0.70
2018-02-15T07:29:42.295Z,-0.80
2018-02-15T07:32:11.055Z,-0.60
2018-02-15T07:34:39.803Z,-0.50
2018-02-15T07:37:08.387Z,-0.50
2018-02-15T07:39:37.180Z,-0.50
2018-02-15T07:42:05.917Z,-0.50
2018-02-15T07:44:34.659Z,-0.40
2018-02-15T07:47:03.408Z,-0.30
2018-02-15T07:49:32.739Z,-0.40
2018-02-15T07:52:01.302Z,-0.40
2018-02-15T07:54:30.044Z,-0.30
2018-02-15T07:56:59.374Z,-0.20
2018-02-15T07:59:27.921Z,-0.20
2018-02-15T08:01:57.115Z,-0.20
2018-02-15T08:04:26.608Z,-0.30
2018-02-15T08:06:55.564Z,-0.40
2018-02-15T08:09:24.292Z,-0.30
2018-02-15T08:11:53.250Z,-0.30
2018-02-15T08:14:21.982Z,-0.30
2018-02-15T08:16:50.742Z,-0.40
2018-02-15T08:19:19.488Z,-0.40
2018-02-15T08:21:48.231Z,-0.30
2018-02-15T08:24:17.200Z,-0.40
2018-02-15T08:26:45.929Z,-0.50
2018-02-15T08:29:14.664Z,-0.40
2018-02-15T08:31:43.802Z,-0.40
2018-02-15T08:34:12.547Z,-0.40
2018-02-15T08:36:41.279Z,-0.40
2018-02-15T08:39:10.050Z,-0.30
2018-02-15T08:41:38.787Z,-0.20
2018-02-15T08:44:07.687Z,-0.30
2018-02-15T08:46:36.479Z,-0.20
2018-02-15T08:49:05.227Z,-0.20
2018-02-15T08:51:33.983Z,-0.10
2018-02-15T08:54:02.821Z,-0.10
2018-02-15T08:56:31.571Z,-0.10
2018-02-15T08:59:00.309Z,0.00
2018-02-15T09:01:29.811Z,0.00
2018-02-15T09:03:59.331Z,0.10
2018-02-15T09:06:28.832Z,0.00
2018-02-15T09:08:58.348Z,0.00
2018-02-15T09:11:27.112Z,0.10
2018-02-15T09:13:55.864Z,0.20
2018-02-15T09:16:24.620Z,0.00
2018-02-15T09:18:53.372Z,0.10
2018-02-15T09:21:22.092Z,0.20
2018-02-15T09:23:50.904Z,0.20
2018-02-15T09:26:19.666Z,0.20
2018-02-15T09:28:48.812Z,0.10
2018-02-15T09:31:17.604Z,0.30
2018-02-15T09:33:46.344Z,0.20
2018-02-15T09:36:15.840Z,0.30
2018-02-15T09:38:45.362Z,0.30
2018-02-15T09:41:14.277Z,0.40
2018-02-15T09:43:43.034Z,0.50
2018-02-15T09:46:12.535Z,0.50
2018-02-15T09:48:42.055Z,0.70
2018-02-15T09:51:10.951Z,0.90
2018-02-15T09:53:39.706Z,1.00
2018-02-15T09:56:09.218Z,0.90
2018-02-15T09:58:38.819Z,1.00
2018-02-15T10:01:07.645Z,0.90
2018-02-15T10:03:36.385Z,0.90
2018-02-15T10:06:05.149Z,1.00
2018-02-15T10:08:34.020Z,1.20
2018-02-15T10:11:02.783Z,1.20
2018-02-15T10:13:32.331Z,1.40
2018-02-15T10:16:01.105Z,1.40
2018-02-15T10:18:29.850Z,1.40
2018-02-15T10:20:58.614Z,1.50
2018-02-15T10:23:27.404Z,1.30
2018-02-15T10:25:56.168Z,1.30
2018-02-15T10:28:24.940Z,1.50
2018-02-15T10:30:53.688Z,1.60
2018-02-15T10:33:22.444Z,1.80
2018-02-15T10:35:51.177Z,1.90
2018-02-15T10:38:19.960Z,1.90
2018-02-15T10:40:50.213Z,1.80
2018-02-15T10:43:18.679Z,1.80
2018-02-15T10:45:47.153Z,1.80
2018-02-15T10:48:16.519Z,1.90
2018-02-15T10:50:44.987Z,1.80
2018-02-15T10:53:13.523Z,1.90
2018-02-15T10:55:42.775Z,1.80
2018-02-15T10:58:11.231Z,1.90
2018-02-15T11:00:45.556Z,1.80
2018-02-15T11:03:19.563Z,1.80
2018-02-15T11:05:48.275Z,1.80
2018-02-15T11:08:16.754Z,1.80
2018-02-15T11:10:45.227Z,2.00
2018-02-15T11:13:13.719Z,2.00
2018-02-15T11:15:42.196Z,2.10
2018-02-15T11:18:10.661Z,2.10
2018-02-15T11:20:40.215Z,2.30
2018-02-15T11:23:08.695Z,2.20
2018-02-15T11:25:37.180Z,2.40
2018-02-15T11:28:05.748Z,2.40
2018-02-15T11:30:34.217Z,2.50
2018-02-15T11:33:02.683Z,2.60
2018-02-15T11:35:31.151Z,2.60
2018-02-15T11:37:59.627Z,2.60
2018-02-15T11:40:28.880Z,2.60
2018-02-15T11:42:57.354Z,2.60
2018-02-15T11:45:26.765Z,2.70
2018-02-15T11:47:55.255Z,2.70
2018-02-15T11:50:23.727Z,2.60
2018-02-15T11:52:52.603Z,2.60
2018-02-15T11:55:21.059Z,2.50
2018-02-15T11:57:49.536Z,2.50
2018-02-15T12:00:17.992Z,2.50
2018-02-15T12:02:47.264Z,2.50
2018-02-15T12:05:15.726Z,2.50
2018-02-15T12:07:44.223Z,2.50
2018-02-15T12:10:12.685Z,2.50
2018-02-15T12:12:41.188Z,2.40
2018-02-15T12:15:09.946Z,2.40
2018-02-15T12:17:39.459Z,2.50
2018-02-15T12:20:07.962Z,2.40
2018-02-15T12:22:37.291Z,2.50
2018-02-15T12:25:05.759Z,2.50
2018-02-15T12:27:34.644Z,2.40
2018-02-15T12:30:03.379Z,2.50
2018-02-15T12:32:32.148Z,2.50
2018-02-15T12:35:01.333Z,2.60
2018-02-15T12:37:30.097Z,2.50
2018-02-15T12:39:58.907Z,2.60
2018-02-15T12:42:27.367Z,2.70
2018-02-15T12:44:55.855Z,2.60
2018-02-15T12:47:24.599Z,2.70
2018-02-15T12:49:53.851Z,2.70
2018-02-15T12:52:22.317Z,2.80
2018-02-15T12:54:50.793Z,2.80
2018-02-15T12:57:19.486Z,2.80
2018-02-15T12:59:47.955Z,2.80
2018-02-15T13:02:16.415Z,2.80
2018-02-15T13:04:45.644Z,2.80
2018-02-15T13:07:14.139Z,2.80
2018-02-15T13:09:42.638Z,2.80
2018-02-15T13:12:23.046Z,2.80
2018-02-15T13:14:52.271Z,2.80
2018-02-15T13:17:20.765Z,2.90
2018-02-15T13:20:00.582Z,2.80
2018-02-15T13:22:41.083Z,2.80
2018-02-15T13:25:09.543Z,2.80
2018-02-15T13:27:49.119Z,2.70
2018-02-15T13:30:17.591Z,2.70
2018-02-15T13:32:46.041Z,2.70
2018-02-15T13:35:14.511Z,2.70
2018-02-15T13:37:43.742Z,2.70
2018-02-15T13:40:12.215Z,2.80
2018-02-15T13:42:40.690Z,2.70
2018-02-15T13:45:08.815Z,2.70
2018-02-15T13:47:38.096Z,2.70
2018-02-15T13:50:06.570Z,2.70
2018-02-15T13:52:35.047Z,2.80
2018-02-15T13:55:03.916Z,2.80
2018-02-15T13:57:32.396Z,2.90
2018-02-15T14:00:02.423Z,2.90
2018-02-15T14:02:30.899Z,2.90
2018-02-15T14:05:00.112Z,2.90
2018-02-15T14:07:29.359Z,2.90
2018-02-15T14:09:59.323Z,2.90
2018-02-15T14:12:27.795Z,3.00
2018-02-15T14:14:57.022Z,3.00
2018-02-15T14:17:25.508Z,3.00
2018-02-15T14:19:53.971Z,3.00
2018-02-15T14:22:23.395Z,3.00
2018-02-15T14:24:51.867Z,3.00
2018-02-15T14:27:20.336Z,3.10
2018-02-15T14:29:48.820Z,3.10
2018-02-15T14:32:17.303Z,3.10
2018-02-15T14:34:45.780Z,3.10
2018-02-15T14:37:14.235Z,3.10
2018-02-15T14:39:42.704Z,3.10
2018-02-15T14:42:11.171Z,3.10
2018-02-15T14:44:39.707Z,3.20
2018-02-15T14:47:08.932Z,3.20
2018-02-15T14:49:37.422Z,3.20
2018-02-15T14:52:06.130Z,3.20
2018-02-15T14:54:34.453Z,3.20
2018-02-15T14:57:03.678Z,3.30
2018-02-15T14:59:32.174Z,3.20
2018-02-15T15:02:00.632Z,3.20
2018-02-15T15:04:29.095Z,3.20
2018-02-15T15:06:58.324Z,3.20
2018-02-15T15:09:26.788Z,3.10
2018-02-15T15:11:55.307Z,3.20
2018-02-15T15:14:23.767Z,3.10
2018-02-15T15:16:52.239Z,3.10
2018-02-15T15:19:20.715Z,3.10
2018-02-15T15:21:49.983Z,3.10
2018-02-15T15:24:18.488Z,3.10
2018-02-15T15:26:47.731Z,3.10
2018-02-15T15:29:16.208Z,3.20
2018-02-15T15:31:44.704Z,3.10
2018-02-15T15:34:13.150Z,3.10
2018-02-15T15:36:41.812Z,3.10
2018-02-15T15:39:11.059Z,3.10
2018-02-15T15:41:39.550Z,3.00
2018-02-15T15:44:08.063Z,3.10
2018-02-15T15:46:36.562Z,3.10
2018-02-15T15:49:05.015Z,3.00
2018-02-15T15:51:33.491Z,3.00
2018-02-15T15:54:02.034Z,3.00
2018-02-15T15:56:30.537Z,2.90
2018-02-15T15:58:58.999Z,2.90
2018-02-15T16:01:27.476Z,2.90
2018-02-15T16:03:56.019Z,2.90
2018-02-15T16:06:24.656Z,3.00
2018-02-15T16:08:53.287Z,2.90
2018-02-15T16:11:21.779Z,2.90
2018-02-15T16:13:50.283Z,2.90
2018-02-15T16:16:19.132Z,3.10
2018-02-15T16:18:47.630Z,3.10
2018-02-15T16:21:16.464Z,3.10
2018-02-15T16:23:45.689Z,3.10
2018-02-15T16:26:14.186Z,3.20
2018-02-15T16:28:42.736Z,3.20
2018-02-15T16:31:11.216Z,3.20
2018-02-15T16:33:40.488Z,3.10
2018-02-15T16:36:08.954Z,3.20
2018-02-15T16:38:37.434Z,3.30
2018-02-15T16:41:05.892Z,3.30
2018-02-15T16:43:34.448Z,3.30
2018-02-15T16:46:03.161Z,3.30
2018-02-15T16:48:31.663Z,3.40
2018-02-15T16:51:00.144Z,3.30
2018-02-15T16:53:29.396Z,3.30
2018-02-15T16:55:58.245Z,3.30
2018-02-15T16:58:27.195Z,3.40
2018-02-15T17:00:56.057Z,3.40
2018-02-15T17:03:25.309Z,3.40
2018-02-15T17:05:54.242Z,3.40
2018-02-15T17:08:23.122Z,3.40
2018-02-15T17:10:53.100Z,3.40
2018-02-15T17:13:22.352Z,3.40
2018-02-15T17:15:51.200Z,3.40
2018-02-15T17:18:20.471Z,3.40
2018-02-15T17:20:49.799Z,3.40
2018-02-15T17:23:18.672Z,3.50
2018-02-15T17:25:47.534Z,3.50
2018-02-15T17:28:16.424Z,3.40
2018-02-15T17:30:45.291Z,3.50
2018-02-15T17:33:14.196Z,3.50
2018-02-15T17:35:43.663Z,3.50
2018-02-15T17:38:12.131Z,3.40
2018-02-15T17:40:41.391Z,3.30
2018-02-15T17:43:10.240Z,3.30
2018-02-15T17:45:39.544Z,3.30
2018-02-15T17:48:08.399Z,3.20
2018-02-15T17:50:37.269Z,3.10
2018-02-15T17:53:06.490Z,3.20
2018-02-15T17:55:35.452Z,3.30
2018-02-15T17:58:04.307Z,3.20
2018-02-15T18:00:33.172Z,3.20
2018-02-15T18:03:02.419Z,3.30
2018-02-15T18:05:31.339Z,3.30
2018-02-15T18:08:00.220Z,3.20
2018-02-15T18:10:29.472Z,3.20
2018-02-15T18:12:58.429Z,3.30
2018-02-15T18:15:27.296Z,3.30
2018-02-15T18:17:56.562Z,3.40
2018-02-15T18:20:25.435Z,3.40
2018-02-15T18:22:54.431Z,3.40
2018-02-15T18:25:23.336Z,3.40
2018-02-15T18:27:52.219Z,3.50
2018-02-15T18:30:21.682Z,3.40
2018-02-15T18:32:50.237Z,3.50
2018-02-15T18:35:18.742Z,3.50
2018-02-15T18:37:47.624Z,3.50
2018-02-15T18:40:16.495Z,3.60
2018-02-15T18:42:46.119Z,3.60
2018-02-15T18:45:15.387Z,3.70
2018-02-15T18:47:44.320Z,3.70
2018-02-15T18:50:13.215Z,3.70
2018-02-15T18:52:42.523Z,3.70
2018-02-15T18:55:11.408Z,3.70
2018-02-15T18:57:40.342Z,3.70
2018-02-15T19:00:09.240Z,3.80
2018-02-15T19:02:38.117Z,3.80
2018-02-15T19:05:07.447Z,3.80
2018-02-15T19:07:36.324Z,3.70
2018-02-15T19:10:05.216Z,3.70
2018-02-15T19:12:34.096Z,3.70
2018-02-15T19:15:03.155Z,3.70
2018-02-15T19:17:32.406Z,3.80
2018-02-15T19:20:01.281Z,3.80
2018-02-15T19:22:30.571Z,3.80
2018-02-15T19:24:59.441Z,3.80
2018-02-15T19:27:28.327Z,3.90
2018-02-15T19:29:57.932Z,3.90
2018-02-15T19:32:26.442Z,3.90
2018-02-15T19:34:55.387Z,3.90
2018-02-15T19:37:24.277Z,3.90
2018-02-15T19:39:53.167Z,3.90
2018-02-15T19:42:22.413Z,3.90
2018-02-15T19:44:51.302Z,3.90
2018-02-15T19:47:20.201Z,3.90
2018-02-15T19:49:50.172Z,3.90
2018-02-15T19:52:19.449Z,4.00
2018-02-15T19:54:48.530Z,4.00
2018-02-15T19:57:17.419Z,4.00
2018-02-15T19:59:46.344Z,3.90
2018-02-15T20:02:15.233Z,3.90
2018-02-15T20:04:44.116Z,4.00
2018-02-15T20:07:13.356Z,3.90
2018-02-15T20:09:42.984Z,4.00
2018-02-15T20:12:11.448Z,4.00
2018-02-15T20:14:40.322Z,3.80
2018-02-15T20:17:08.845Z,3.80
2018-02-15T20:19:37.172Z,3.90
2018-02-15T20:22:06.412Z,3.90
2018-02-15T20:24:35.266Z,4.00
2018-02-15T20:27:09.520Z,4.10
2018-02-15T20:29:39.150Z,4.10
2018-02-15T20:32:09.160Z,4.00
2018-02-15T20:34:38.408Z,3.90
2018-02-15T20:37:07.288Z,3.80
2018-02-15T20:39:41.688Z,3.70
2018-02-15T20:42:10.180Z,3.80
2018-02-15T20:44:39.441Z,3.80
2018-02-15T20:47:08.320Z,3.80
2018-02-15T20:49:42.655Z,3.90
2018-02-15T20:52:16.771Z,3.90
2018-02-15T20:54:50.788Z,3.90
2018-02-15T20:57:19.680Z,3.80
2018-02-15T20:59:48.196Z,3.80
2018-02-15T21:02:18.243Z,3.80
2018-02-15T21:04:47.127Z,3.90
2018-02-15T21:07:16.358Z,4.00
2018-02-15T21:09:45.228Z,4.00
2018-02-15T21:12:14.173Z,4.10
2018-02-15T21:14:43.444Z,4.10
2018-02-15T21:17:12.130Z,4.10
2018-02-15T21:19:41.440Z,4.10
2018-02-15T21:22:10.338Z,4.10
2018-02-15T21:24:39.272Z,4.10
2018-02-15T21:27:08.153Z,4.00
2018-02-15T21:29:37.427Z,3.90
2018-02-15T21:32:06.316Z,3.90
2018-02-15T21:34:35.553Z,3.80
2018-02-15T21:37:04.067Z,3.70
2018-02-15T21:39:33.400Z,3.60
2018-02-15T21:42:02.272Z,3.60
2018-02-15T21:44:31.131Z,3.70
2018-02-15T21:47:00.371Z,3.80
2018-02-15T21:49:28.844Z,3.90
2018-02-15T21:51:57.544Z,3.80
2018-02-15T21:54:26.068Z,3.80
2018-02-15T21:56:54.564Z,3.90
2018-02-15T21:59:23.806Z,3.60
2018-02-15T22:01:53.213Z,3.60
2018-02-15T22:04:21.711Z,3.60
2018-02-15T22:06:50.176Z,3.60
2018-02-15T22:09:18.643Z,3.70
2018-02-15T22:11:47.113Z,3.70
2018-02-15T22:14:16.391Z,3.70
2018-02-15T22:16:44.854Z,3.80
2018-02-15T22:19:13.306Z,3.80
2018-02-15T22:21:41.760Z,4.00
2018-02-15T22:24:10.974Z,4.10
2018-02-15T22:26:39.432Z,4.00
2018-02-15T22:29:08.657Z,4.30
2018-02-15T22:31:37.163Z,4.50
2018-02-15T22:34:05.630Z,4.60
2018-02-15T22:36:34.066Z,4.70
2018-02-15T22:39:03.287Z,4.70
2018-02-15T22:41:32.516Z,4.80
2018-02-15T22:44:00.949Z,4.80
2018-02-15T22:46:29.410Z,4.80
2018-02-15T22:48:57.903Z,4.80
2018-02-15T22:51:26.354Z,4.90
2018-02-15T22:53:54.800Z,4.80
2018-02-15T22:56:24.018Z,4.80
2018-02-15T22:58:52.456Z,4.80
2018-02-15T23:01:20.878Z,4.80
2018-02-15T23:03:49.333Z,4.80
2018-02-15T23:06:18.536Z,4.70
2018-02-15T23:08:47.748Z,4.70
2018-02-15T23:11:16.943Z,4.70
2018-02-15T23:13:46.217Z,4.70
2018-02-15T23:16:14.642Z,4.60
2018-02-15T23:18:43.082Z,4.60
2018-02-15T23:21:11.678Z,4.60
2018-02-15T23:23:40.138Z,4.60
2018-02-15T23:26:08.642Z,4.60
2018-02-15T23:28:37.681Z,4.70
2018-02-15T23:31:06.159Z,4.70
2018-02-15T23:33:34.583Z,4.70
2018-02-15T23:36:03.017Z,4.70
2018-02-15T23:38:31.454Z,4.70
2018-02-15T23:40:59.890Z,4.70
2018-02-15T23:43:28.341Z,4.70
2018-02-15T23:45:57.546Z,4.60
2018-02-15T23:48:26.801Z,4.60
2018-02-15T23:50:55.233Z,4.60
2018-02-15T23:53:23.675Z,4.60
2018-02-15T23:55:52.102Z,4.60
2018-02-15T23:58:20.593Z,4.60
